createdAt,value
2019-02-23T00:01:04.338Z,100041.61
2019-02-23T00:06:07.795Z,100044.13
2019-02-23T00:11:09.444Z,100042.77
2019-02-23T00:16:11.107Z,100052.70
2019-02-23T00:21:12.771Z,100045.88
2019-02-23T00:26:14.378Z,100049.67
2019-02-23T00:31:16.029Z,100039.63
2019-02-23T00:36:17.794Z,100037.88
2019-02-23T00:41:19.393Z,100044.31
2019-02-23T00:46:21.051Z,100043.93
2019-02-23T00:51:22.608Z,100043.02
2019-02-23T00:56:24.413Z,100041.27
2019-02-23T01:01:26.035Z,100038.67
2019-02-23T01:06:27.610Z,100042.12
2019-02-23T01:11:29.160Z,100050.30
2019-02-23T01:16:30.708Z,100054.20
2019-02-23T01:21:32.367Z,100059.40
2019-02-23T01:26:33.931Z,100068.86
2019-02-23T01:31:35.646Z,100073.11
2019-02-23T01:36:37.270Z,100071.41
2019-02-23T01:41:38.931Z,100071.33
2019-02-23T01:46:40.488Z,100067.45
2019-02-23T01:51:42.145Z,100060.14
2019-02-23T01:56:43.693Z,100059.28
2019-02-23T02:01:45.388Z,100066.23
2019-02-23T02:06:47.067Z,100061.90
2019-02-23T02:11:48.715Z,100057.89
2019-02-23T02:16:50.359Z,100068.70
2019-02-23T02:21:51.915Z,100065.19
2019-02-23T02:26:53.515Z,100063.47
2019-02-23T02:31:55.094Z,100062.95
2019-02-23T02:36:56.799Z,100060.75
2019-02-23T02:41:58.528Z,100067.25
2019-02-23T02:47:00.036Z,100068.43
2019-02-23T02:52:01.589Z,100067.98
2019-02-23T02:57:03.184Z,100071.88
2019-02-23T03:02:05.442Z,100081.82
2019-02-23T03:07:08.384Z,100080.44
2019-02-23T03:12:09.975Z,100091.25
2019-02-23T03:17:11.545Z,100078.70
2019-02-23T03:22:13.106Z,100076.53
2019-02-23T03:27:14.693Z,100079.08
2019-02-23T03:32:16.254Z,100087.20
2019-02-23T03:37:17.908Z,100089.70
2019-02-23T03:42:19.572Z,100085.33
2019-02-23T03:47:21.123Z,100087.92
2019-02-23T03:52:22.678Z,100087.90
2019-02-23T03:57:24.380Z,100093.06
2019-02-23T04:02:25.926Z,100083.99
2019-02-23T04:07:27.475Z,100077.48
2019-02-23T04:12:29.082Z,100082.19
2019-02-23T04:17:30.629Z,100075.70
2019-02-23T04:22:32.183Z,100068.24
2019-02-23T04:27:33.732Z,100065.01
2019-02-23T04:32:35.335Z,100065.01
2019-02-23T04:37:36.963Z,100055.81
2019-02-23T04:42:38.604Z,100047.88
2019-02-23T04:47:40.156Z,100050.41
2019-02-23T04:52:41.713Z,100057.25
2019-02-23T04:57:43.260Z,100066.77
2019-02-23T05:02:44.818Z,100072.42
2019-02-23T05:07:46.356Z,100088.44
2019-02-23T05:12:48.203Z,100087.19
2019-02-23T05:17:49.810Z,100086.45
2019-02-23T05:22:51.360Z,100097.71
2019-02-23T05:27:53.018Z,100091.58
2019-02-23T05:32:54.573Z,100098.39
2019-02-23T05:37:56.233Z,100104.36
2019-02-23T05:43:01.015Z,100107.91
2019-02-23T05:48:01.344Z,100104.02
2019-02-23T05:53:02.901Z,100095.80
2019-02-23T05:58:04.453Z,100108.31
2019-02-23T06:03:06.139Z,100129.16
2019-02-23T06:08:07.700Z,100133.34
2019-02-23T06:13:09.350Z,100133.39
2019-02-23T06:18:10.944Z,100130.49
2019-02-23T06:23:12.715Z,100132.61
2019-02-23T06:28:15.266Z,100128.72
2019-02-23T06:33:16.887Z,100136.73
2019-02-23T06:38:18.572Z,100129.69
2019-02-23T06:43:20.393Z,100142.48
2019-02-23T06:48:21.951Z,100132.98
2019-02-23T06:53:23.697Z,100142.51
2019-02-23T06:58:25.240Z,100137.19
2019-02-23T07:03:28.831Z,100144.89
2019-02-23T07:08:30.488Z,100153.89
2019-02-23T07:13:32.048Z,100179.91
2019-02-23T07:18:33.614Z,100181.94
2019-02-23T07:23:35.162Z,100189.91
2019-02-23T07:28:36.719Z,100201.54
2019-02-23T07:33:38.540Z,100209.85
2019-02-23T07:38:40.162Z,100212.59
2019-02-23T07:43:41.714Z,100222.09
2019-02-23T07:48:44.327Z,100232.76
2019-02-23T07:53:45.874Z,100245.23
2019-02-23T07:58:47.464Z,100242.97
2019-02-23T08:03:49.064Z,100255.94
2019-02-23T08:08:50.652Z,100266.02
2019-02-23T08:13:52.213Z,100288.71
2019-02-23T08:18:54.758Z,100284.58
2019-02-23T08:23:56.309Z,100284.58
2019-02-23T08:28:57.872Z,100273.84
2019-02-23T08:33:59.426Z,100280.23
2019-02-23T08:39:01.122Z,100278.97
2019-02-23T08:44:04.568Z,100275.34
2019-02-23T08:49:06.136Z,100269.80
2019-02-23T08:54:07.700Z,100266.52
2019-02-23T08:59:09.259Z,100268.94
2019-02-23T09:04:10.866Z,100284.70
2019-02-23T09:09:12.475Z,100290.38
2019-02-23T09:14:14.028Z,100289.07
2019-02-23T09:19:15.584Z,100300.27
2019-02-23T09:24:17.149Z,100319.50
2019-02-23T09:29:18.705Z,100329.73
2019-02-23T09:34:20.268Z,100354.52
2019-02-23T09:39:22.156Z,100360.80
2019-02-23T09:44:23.764Z,100365.36
2019-02-23T09:49:25.573Z,100370.45
2019-02-23T09:54:27.124Z,100357.03
2019-02-23T09:59:29.675Z,100309.80
2019-02-23T10:04:31.229Z,100305.47
2019-02-23T10:09:32.790Z,100285.55
2019-02-23T10:14:34.407Z,100307.75
2019-02-23T10:19:35.968Z,100293.94
2019-02-23T10:24:37.518Z,100273.33
2019-02-23T10:29:39.076Z,100273.59
2019-02-23T10:34:40.626Z,100271.96
2019-02-23T10:39:42.306Z,100258.15
2019-02-23T10:44:43.949Z,100264.80
2019-02-23T10:49:45.509Z,100226.62
2019-02-23T10:54:47.331Z,100228.72
2019-02-23T10:59:48.912Z,100233.56
2019-02-23T11:04:50.459Z,100254.53
2019-02-23T11:09:52.111Z,100269.26
2019-02-23T11:14:53.700Z,100264.52
2019-02-23T11:19:55.468Z,100267.67
2019-02-23T11:24:57.723Z,100267.64
2019-02-23T11:29:59.324Z,100260.96
2019-02-23T11:35:00.887Z,100249.90
2019-02-23T11:40:05.448Z,100221.01
2019-02-23T11:45:09.196Z,100215.12
2019-02-23T11:50:12.047Z,100202.63
2019-02-23T11:55:14.608Z,100199.80
2019-02-23T12:00:16.258Z,100205.08
2019-02-23T12:05:17.908Z,100191.31
2019-02-23T12:10:19.467Z,100177.20
2019-02-23T12:15:21.054Z,100154.45
2019-02-23T12:20:22.617Z,100133.94
2019-02-23T12:25:26.388Z,100130.22
2019-02-23T12:30:28.006Z,100127.64
2019-02-23T12:35:29.553Z,100113.02
2019-02-23T12:40:31.205Z,100107.30
2019-02-23T12:45:32.755Z,100106.61
2019-02-23T12:50:34.320Z,100106.52
2019-02-23T12:55:36.119Z,100102.91
2019-02-23T13:00:37.827Z,100094.37
2019-02-23T13:05:39.481Z,100103.83
2019-02-23T13:10:41.342Z,100114.76
2019-02-23T13:16:00.442Z,100111.55
2019-02-23T13:21:16.612Z,100107.69
2019-02-23T13:26:29.627Z,100105.80
2019-02-23T13:32:03.939Z,100104.61
2019-02-23T13:37:41.424Z,100097.63
2019-02-23T13:43:23.467Z,100102.34
2019-02-23T13:49:01.919Z,100113.35
2019-02-23T13:54:40.774Z,100128.10
2019-02-23T14:00:16.381Z,100115.45
2019-02-23T14:05:35.143Z,100103.26
2019-02-23T14:11:10.615Z,100123.22
2019-02-23T14:16:38.810Z,100126.05
2019-02-23T14:22:00.357Z,100122.19
2019-02-23T14:27:38.989Z,100119.58
2019-02-23T14:33:27.240Z,100128.29
2019-02-23T14:38:43.113Z,100123.82
2019-02-23T14:44:02.205Z,100113.56
2019-02-23T14:49:28.564Z,100112.16
2019-02-23T14:55:00.726Z,100106.13
2019-02-23T15:00:14.805Z,100113.83
2019-02-23T15:05:30.885Z,100104.33
2019-02-23T15:11:05.006Z,100100.12
2019-02-23T15:16:50.194Z,100084.23
2019-02-23T15:22:34.997Z,100073.41
2019-02-23T15:28:24.878Z,100075.94
2019-02-23T15:33:41.477Z,100072.81
2019-02-23T15:39:12.814Z,100077.05
2019-02-23T15:45:03.528Z,100088.43
2019-02-23T15:50:13.119Z,100098.48
2019-02-23T15:55:08.870Z,100111.94
2019-02-23T16:00:10.725Z,100119.59
2019-02-23T16:05:12.984Z,100106.70
2019-02-23T16:10:17.585Z,100103.78
2019-02-23T16:15:18.184Z,100101.34
2019-02-23T16:20:19.844Z,100093.64
2019-02-23T16:25:21.405Z,100099.45
2019-02-23T16:30:22.981Z,100106.11
2019-02-23T16:35:24.671Z,100103.20
2019-02-23T16:40:26.267Z,100103.70
2019-02-23T16:45:27.906Z,100088.51
2019-02-23T16:50:29.466Z,100078.61
2019-02-23T16:55:32.141Z,100070.38
2019-02-23T17:00:33.988Z,100060.89
2019-02-23T17:05:35.695Z,100049.67
2019-02-23T17:10:37.352Z,100041.08
2019-02-23T17:15:38.918Z,100071.22
2019-02-23T17:20:40.496Z,100078.66
2019-02-23T17:25:42.059Z,100062.58
2019-02-23T17:30:43.666Z,100079.59
2019-02-23T17:35:45.287Z,100088.28
2019-02-23T17:40:46.885Z,100094.44
2019-02-23T17:45:48.531Z,100087.48
2019-02-23T17:50:50.778Z,100084.00
2019-02-23T17:55:52.417Z,100077.93
2019-02-23T18:00:55.602Z,100042.73
2019-02-23T18:05:58.393Z,100042.77
2019-02-23T18:11:00.562Z,100031.89
2019-02-23T18:16:02.212Z,100024.13
2019-02-23T18:21:03.984Z,100030.72
2019-02-23T18:26:05.636Z,100022.05
2019-02-23T18:31:07.388Z,100012.06
2019-02-23T18:36:08.982Z,100005.59
2019-02-23T18:41:10.884Z,100002.99
2019-02-23T18:46:12.622Z,99989.09
2019-02-23T18:51:14.424Z,100002.11
2019-02-23T18:56:16.172Z,99990.41
2019-02-23T19:01:17.970Z,100013.02
2019-02-23T19:06:19.742Z,100017.36
2019-02-23T19:11:21.432Z,100007.38
2019-02-23T19:16:23.447Z,100001.31
2019-02-23T19:21:25.061Z,99979.57
2019-02-23T19:26:26.985Z,99973.48
2019-02-23T19:31:28.707Z,99969.59
2019-02-23T19:36:30.392Z,99966.57
2019-02-23T19:41:32.053Z,99952.22
2019-02-23T19:46:37.974Z,99960.47
2019-02-23T19:51:39.640Z,99948.75
2019-02-23T19:56:46.832Z,99967.86
2019-02-23T20:01:45.057Z,99963.50
2019-02-23T20:06:47.185Z,99962.66
2019-02-23T20:11:48.843Z,99956.13
2019-02-23T20:16:51.505Z,99963.06
2019-02-23T20:21:53.075Z,99965.64
2019-02-23T20:26:55.831Z,99963.04
2019-02-23T20:31:57.575Z,99963.05
2019-02-23T20:36:59.157Z,99964.34
2019-02-23T20:42:00.807Z,99986.89
2019-02-23T20:47:02.556Z,99979.49
2019-02-23T20:52:04.333Z,99961.71
2019-02-23T20:57:13.932Z,99964.77
2019-02-23T21:02:13.335Z,99963.47
2019-02-23T21:07:15.091Z,99975.15
2019-02-23T21:12:16.740Z,99968.61
2019-02-23T21:17:18.292Z,99966.89
2019-02-23T21:22:19.866Z,99979.47
2019-02-23T21:27:21.495Z,99993.81
2019-02-23T21:32:23.100Z,99987.30
2019-02-23T21:37:24.659Z,99996.00
2019-02-23T21:42:26.216Z,100000.35
2019-02-23T21:47:27.889Z,99997.75
2019-02-23T21:52:29.448Z,99999.49
2019-02-23T21:57:31.206Z,99985.61
2019-02-23T22:02:32.813Z,99983.87
2019-02-23T22:07:34.469Z,100002.55
2019-02-23T22:12:37.021Z,99996.03
2019-02-23T22:17:38.567Z,99994.29
2019-02-23T22:22:40.119Z,99991.23
2019-02-23T22:27:41.671Z,99992.54
2019-02-23T22:32:43.267Z,99996.00
2019-02-23T22:37:44.878Z,99997.72
2019-02-23T22:42:46.431Z,100009.80
2019-02-23T22:47:48.070Z,100008.95
2019-02-23T22:52:49.628Z,100013.66
2019-02-23T22:57:51.193Z,100018.87
2019-02-23T23:02:52.940Z,99989.39
2019-02-23T23:07:55.380Z,99992.41
2019-02-23T23:12:57.806Z,99992.31
2019-02-23T23:17:59.444Z,99985.39
2019-02-23T23:23:01.005Z,99971.05
2019-02-23T23:28:02.567Z,99973.20
2019-02-23T23:33:05.261Z,99967.59
2019-02-23T23:38:06.873Z,99959.78
2019-02-23T23:43:08.423Z,99956.73
2019-02-23T23:48:10.059Z,99952.80
2019-02-23T23:53:11.742Z,99929.78
2019-02-23T23:58:13.300Z,99907.23
